createdAt,value
2022-09-04T00:02:21.952Z,99.90
2022-09-04T00:05:20.108Z,99.90
2022-09-04T00:08:25.363Z,99.90
2022-09-04T00:11:22.007Z,99.90
2022-09-04T00:14:16.546Z,99.90
2022-09-04T00:17:11.769Z,99.90
2022-09-04T00:20:06.057Z,99.90
2022-09-04T00:23:00.636Z,99.90
2022-09-04T00:25:57.507Z,99.90
2022-09-04T00:28:51.780Z,99.90
2022-09-04T00:31:47.365Z,99.90
2022-09-04T00:35:05.135Z,99.90
2022-09-04T00:38:00.090Z,99.90
2022-09-04T00:40:54.137Z,99.90
2022-09-04T00:44:11.511Z,99.90
2022-09-04T00:47:40.160Z,99.90
2022-09-04T00:50:48.180Z,99.90
2022-09-04T00:53:48.581Z,99.90
2022-09-04T01:00:14.379Z,99.90
2022-09-04T01:03:27.577Z,99.90
2022-09-04T01:06:29.699Z,99.90
2022-09-04T01:12:41.889Z,99.90
2022-09-04T01:15:38.074Z,99.90
2022-09-04T01:18:33.178Z,99.90
2022-09-04T01:21:35.697Z,99.90
2022-09-04T01:24:59.807Z,99.90
2022-09-04T01:27:55.528Z,99.90
2022-09-04T01:30:49.731Z,99.90
2022-09-04T01:33:44.474Z,99.90
2022-09-04T01:36:39.585Z,99.90
2022-09-04T01:39:33.233Z,99.90
2022-09-04T01:42:34.722Z,99.90
2022-09-04T01:45:32.718Z,99.90
2022-09-04T01:48:27.609Z,99.90
2022-09-04T01:51:24.950Z,99.90
2022-09-04T01:54:22.849Z,99.90
2022-09-04T01:57:19.511Z,99.90
2022-09-04T02:00:13.380Z,99.90
2022-09-04T02:03:08.271Z,99.90
2022-09-04T02:06:04.749Z,99.90
2022-09-04T02:09:10.321Z,99.90
2022-09-04T02:12:07.192Z,99.90
2022-09-04T02:15:03.757Z,99.90
2022-09-04T02:17:58.136Z,99.90
2022-09-04T02:20:54.442Z,99.90
2022-09-04T02:23:49.923Z,99.90
2022-09-04T02:26:43.935Z,99.90
2022-09-04T02:29:40.191Z,99.90
2022-09-04T02:32:38.023Z,99.90
2022-09-04T02:35:33.380Z,99.90
2022-09-04T02:38:29.548Z,99.90
2022-09-04T02:41:24.180Z,99.90
2022-09-04T02:44:25.524Z,99.90
2022-09-04T02:47:21.958Z,99.90
2022-09-04T02:50:20.445Z,99.90
2022-09-04T02:53:20.287Z,99.90
2022-09-04T02:56:22.727Z,99.90
2022-09-04T02:59:27.889Z,99.90
2022-09-04T03:02:26.150Z,99.90
2022-09-04T03:05:21.187Z,99.90
2022-09-04T03:08:16.062Z,99.90
2022-09-04T03:11:11.936Z,99.90
2022-09-04T03:14:06.281Z,99.90
2022-09-04T03:17:01.813Z,99.90
2022-09-04T03:19:55.939Z,99.90
2022-09-04T03:22:51.408Z,99.90
2022-09-04T03:26:11.748Z,99.90
2022-09-04T03:29:09.189Z,99.90
2022-09-04T03:32:16.093Z,99.90
2022-09-04T03:38:00.257Z,99.90
2022-09-04T03:40:56.261Z,99.90
2022-09-04T03:43:59.308Z,99.90
2022-09-04T03:46:57.131Z,99.90
2022-09-04T03:49:50.355Z,99.90
2022-09-04T03:52:47.070Z,99.90
2022-09-04T03:55:53.537Z,99.90
2022-09-04T03:58:47.475Z,99.90
2022-09-04T04:01:54.529Z,99.90
2022-09-04T04:05:00.438Z,99.90
2022-09-04T04:07:58.774Z,99.90
2022-09-04T04:10:55.415Z,99.90
2022-09-04T04:14:11.196Z,99.90
2022-09-04T04:17:12.718Z,99.90
2022-09-04T04:20:14.641Z,99.90
2022-09-04T04:23:22.547Z,99.90
2022-09-04T04:26:20.700Z,99.90
2022-09-04T04:29:43.766Z,99.90
2022-09-04T04:32:59.289Z,99.90
2022-09-04T04:35:55.702Z,99.90
2022-09-04T04:38:56.327Z,99.90
2022-09-04T04:42:08.665Z,99.90
2022-09-04T04:45:31.019Z,99.90
2022-09-04T04:49:05.870Z,99.90
2022-09-04T04:52:11.901Z,99.90
2022-09-04T04:55:22.325Z,99.90
2022-09-04T04:58:24.530Z,99.90
2022-09-04T05:01:21.463Z,99.90
2022-09-04T05:04:17.530Z,99.90
2022-09-04T05:07:14.322Z,99.90
2022-09-04T05:10:13.572Z,99.90
2022-09-04T05:13:11.621Z,99.90
2022-09-04T05:16:09.807Z,99.90
2022-09-04T05:19:03.481Z,99.90
2022-09-04T05:21:59.391Z,99.90
2022-09-04T05:24:57.730Z,99.90
2022-09-04T05:27:56.120Z,99.90
2022-09-04T05:30:50.543Z,99.90
2022-09-04T05:33:45.943Z,99.90
2022-09-04T05:36:43.953Z,99.90
2022-09-04T05:39:35.304Z,99.90
2022-09-04T05:42:45.593Z,99.90
2022-09-04T05:45:44.459Z,99.90
2022-09-04T05:48:40.687Z,99.90
2022-09-04T05:51:48.456Z,99.90
2022-09-04T05:55:13.242Z,99.90
2022-09-04T06:00:49.779Z,99.90
2022-09-04T06:04:10.940Z,99.90
2022-09-04T06:07:08.479Z,99.90
2022-09-04T06:10:04.590Z,99.90
2022-09-04T06:13:51.430Z,99.90
2022-09-04T06:16:50.182Z,99.90
2022-09-04T06:19:49.574Z,99.90
2022-09-04T06:23:04.875Z,99.90
2022-09-04T06:26:11.358Z,99.90
2022-09-04T06:29:12.308Z,99.90
2022-09-04T06:32:44.517Z,99.90
2022-09-04T06:35:58.661Z,99.90
2022-09-04T06:38:57.781Z,99.90
2022-09-04T06:42:01.325Z,99.90
2022-09-04T06:44:59.936Z,99.90
2022-09-04T06:48:04.757Z,99.90
2022-09-04T06:53:47.181Z,99.90
2022-09-04T06:56:50.688Z,99.90
2022-09-04T06:59:55.963Z,99.90
2022-09-04T07:06:12.858Z,99.90
2022-09-04T07:09:08.981Z,99.90
2022-09-04T07:12:28.165Z,99.90
2022-09-04T07:16:09.628Z,99.90
2022-09-04T07:19:14.608Z,99.90
2022-09-04T07:22:22.822Z,99.90
2022-09-04T07:25:18.532Z,99.90
2022-09-04T07:28:15.540Z,99.90
2022-09-04T07:31:10.573Z,99.90
2022-09-04T07:34:06.359Z,99.90
2022-09-04T07:37:02.688Z,99.90
2022-09-04T07:39:58.476Z,99.90
2022-09-04T07:42:53.762Z,99.90
2022-09-04T07:45:49.814Z,99.90
2022-09-04T07:48:44.807Z,99.90
2022-09-04T07:51:38.840Z,99.90
2022-09-04T07:54:44.338Z,99.90
2022-09-04T07:57:46.666Z,99.90
2022-09-04T08:00:43.475Z,99.90
2022-09-04T08:03:53.902Z,99.90
2022-09-04T08:06:42.065Z,99.90
2022-09-04T08:09:41.959Z,99.90
2022-09-04T08:12:50.863Z,99.90
2022-09-04T08:15:46.499Z,99.90
2022-09-04T08:21:48.029Z,99.90
2022-09-04T08:24:54.085Z,99.90
2022-09-04T08:28:09.368Z,99.90
2022-09-04T08:31:07.884Z,99.90
2022-09-04T08:34:23.611Z,99.90
2022-09-04T08:37:20.898Z,99.90
2022-09-04T08:41:06.331Z,99.90
2022-09-04T08:47:44.876Z,99.90
2022-09-04T08:51:08.366Z,99.90
2022-09-04T08:54:13.729Z,99.90
2022-09-04T08:57:18.529Z,99.90
2022-09-04T09:00:12.785Z,99.90
2022-09-04T09:03:28.102Z,99.90
2022-09-04T09:06:45.274Z,99.90
2022-09-04T09:10:08.593Z,99.90
2022-09-04T09:13:30.493Z,99.90
2022-09-04T09:16:27.998Z,99.90
2022-09-04T09:19:39.871Z,99.90
2022-09-04T09:22:49.595Z,99.90
2022-09-04T09:25:44.295Z,99.90
2022-09-04T09:29:01.389Z,99.90
2022-09-04T09:32:28.998Z,99.90
2022-09-04T09:36:02.869Z,99.90
2022-09-04T09:39:14.596Z,99.90
2022-09-04T09:46:09.299Z,99.90
2022-09-04T09:52:04.658Z,99.90
2022-09-04T09:58:32.457Z,99.90
2022-09-04T10:01:57.129Z,99.90
2022-09-04T10:05:31.379Z,99.90
2022-09-04T10:08:35.972Z,99.90
2022-09-04T10:15:45.695Z,99.90
2022-09-04T10:22:12.521Z,99.90
2022-09-04T10:25:43.901Z,99.90
2022-09-04T10:29:20.318Z,99.90
2022-09-04T10:32:31.944Z,99.90
2022-09-04T10:35:29.408Z,99.90
2022-09-04T10:38:43.722Z,99.90
2022-09-04T10:41:46.237Z,99.90
2022-09-04T10:45:02.843Z,99.90
2022-09-04T10:48:49.797Z,99.90
2022-09-04T10:52:07.396Z,99.90
2022-09-04T10:55:31.592Z,99.90
2022-09-04T10:58:30.037Z,99.90
2022-09-04T11:01:45.318Z,99.90
2022-09-04T11:05:07.334Z,99.90
2022-09-04T11:08:24.468Z,99.90
2022-09-04T11:11:26.041Z,99.90
2022-09-04T11:14:49.906Z,99.90
2022-09-04T11:18:23.319Z,99.90
2022-09-04T11:21:48.134Z,99.90
2022-09-04T11:25:14.691Z,99.90
2022-09-04T11:28:36.324Z,99.90
2022-09-04T11:31:35.319Z,99.90
2022-09-04T11:35:07.616Z,99.90
2022-09-04T11:38:12.145Z,99.90
2022-09-04T11:41:47.600Z,99.90
2022-09-04T11:45:22.769Z,99.90
2022-09-04T11:48:45.015Z,99.90
2022-09-04T11:52:17.781Z,99.90
2022-09-04T11:55:39.191Z,99.90
2022-09-04T11:58:54.780Z,99.90
2022-09-04T12:02:29.174Z,99.90
2022-09-04T12:08:07.807Z,99.90
2022-09-04T12:11:13.766Z,99.90
2022-09-04T12:14:19.833Z,99.90
2022-09-04T12:17:47.673Z,99.90
2022-09-04T12:21:01.844Z,99.90
2022-09-04T12:24:18.580Z,99.90
2022-09-04T12:30:29.750Z,99.90
2022-09-04T12:33:40.153Z,99.90
2022-09-04T12:37:00.578Z,99.90
2022-09-04T12:40:10.222Z,99.90
2022-09-04T12:43:16.148Z,99.90
2022-09-04T12:46:14.614Z,99.90
2022-09-04T12:49:16.073Z,99.90
2022-09-04T12:52:11.518Z,99.90
2022-09-04T12:55:09.710Z,99.90
2022-09-04T12:58:11.760Z,99.90
2022-09-04T13:01:10.349Z,99.90
2022-09-04T13:04:08.325Z,99.90
2022-09-04T13:07:16.061Z,99.90
2022-09-04T13:10:07.182Z,99.90
2022-09-04T13:13:05.277Z,99.90
2022-09-04T13:16:01.713Z,99.90
2022-09-04T13:19:01.055Z,99.90
2022-09-04T13:22:10.061Z,99.90
2022-09-04T13:25:07.104Z,99.90
2022-09-04T13:28:05.024Z,99.90
2022-09-04T13:31:00.258Z,99.90
2022-09-04T13:33:57.145Z,99.90
2022-09-04T13:36:57.405Z,99.90
2022-09-04T13:40:01.271Z,99.90
2022-09-04T13:43:18.167Z,99.90
2022-09-04T13:46:13.196Z,99.90
2022-09-04T13:49:07.841Z,99.90
2022-09-04T13:52:03.341Z,99.90
2022-09-04T13:54:58.692Z,99.90
2022-09-04T13:57:56.058Z,99.90
2022-09-04T14:00:50.059Z,99.90
2022-09-04T14:03:44.992Z,99.90
2022-09-04T14:06:38.430Z,99.90
2022-09-04T14:09:31.452Z,99.90
2022-09-04T14:12:53.975Z,99.90
2022-09-04T14:15:52.298Z,99.90
2022-09-04T14:19:15.390Z,99.90
2022-09-04T14:22:10.448Z,99.90
2022-09-04T14:25:11.729Z,99.90
2022-09-04T14:28:06.818Z,99.50
2022-09-04T14:31:06.392Z,98.10
2022-09-04T14:34:05.516Z,98.20
2022-09-04T14:37:00.736Z,98.20
2022-09-04T14:39:55.837Z,98.60
2022-09-04T14:42:51.153Z,94.90
2022-09-04T14:46:07.011Z,93.20
2022-09-04T14:49:06.314Z,92.60
2022-09-04T14:51:59.280Z,91.60
2022-09-04T14:54:58.064Z,91.00
2022-09-04T14:57:55.341Z,90.40
2022-09-04T15:01:01.634Z,88.70
2022-09-04T15:03:56.313Z,87.40
2022-09-04T15:07:10.828Z,83.50
2022-09-04T15:09:48.247Z,83.00
2022-09-04T15:12:42.936Z,81.40
2022-09-04T15:15:37.167Z,80.50
2022-09-04T15:21:21.382Z,82.00
2022-09-04T15:24:17.590Z,81.00
2022-09-04T15:27:16.655Z,79.70
2022-09-04T15:30:14.832Z,78.40
2022-09-04T15:33:08.570Z,76.70
2022-09-04T15:36:07.868Z,74.80
2022-09-04T15:39:02.320Z,75.10
2022-09-04T15:41:53.607Z,72.90
2022-09-04T15:44:48.486Z,73.00
2022-09-04T15:48:11.315Z,72.70
2022-09-04T15:51:19.774Z,70.80
2022-09-04T15:54:35.400Z,71.50
2022-09-04T15:57:33.183Z,69.70
2022-09-04T16:00:27.390Z,68.40
2022-09-04T16:03:22.094Z,66.70
2022-09-04T16:06:19.957Z,66.20
2022-09-04T16:09:14.012Z,61.90
2022-09-04T16:12:10.553Z,60.60
2022-09-04T16:15:05.530Z,61.90
2022-09-04T16:17:57.835Z,62.20
2022-09-04T16:20:52.148Z,62.80
2022-09-04T16:23:44.159Z,63.30
2022-09-04T16:26:36.548Z,63.70
2022-09-04T16:29:36.984Z,64.70
2022-09-04T16:32:32.036Z,64.50
2022-09-04T16:35:24.736Z,60.40
2022-09-04T16:38:23.442Z,61.70
2022-09-04T16:41:14.974Z,62.30
2022-09-04T16:44:13.952Z,62.90
2022-09-04T16:47:10.670Z,62.70
2022-09-04T16:50:06.452Z,63.90
2022-09-04T16:53:17.326Z,68.50
2022-09-04T16:56:14.749Z,70.70
2022-09-04T16:59:19.236Z,71.50
2022-09-04T17:02:17.122Z,73.70
2022-09-04T17:05:18.601Z,74.60
2022-09-04T17:08:15.848Z,75.80
2022-09-04T17:11:13.941Z,76.80
2022-09-04T17:14:09.435Z,77.60
2022-09-04T17:17:08.943Z,78.20
2022-09-04T17:20:08.656Z,79.80
2022-09-04T17:28:59.461Z,81.60
2022-09-04T17:29:14.610Z,83.10
2022-09-04T17:32:35.455Z,84.40
2022-09-04T17:40:35.865Z,85.60
2022-09-04T17:40:53.764Z,85.50
2022-09-04T17:41:39.905Z,86.50
2022-09-04T17:44:36.078Z,86.90
2022-09-04T17:47:33.021Z,88.10
2022-09-04T17:50:24.876Z,89.30
2022-09-04T17:53:33.639Z,90.10
2022-09-04T17:56:29.648Z,90.30
2022-09-04T17:59:25.937Z,90.70
2022-09-04T18:02:21.153Z,91.60
2022-09-04T18:05:17.666Z,92.10
2022-09-04T18:08:12.693Z,92.60
2022-09-04T18:11:07.324Z,93.30
2022-09-04T18:14:02.532Z,94.10
2022-09-04T18:17:11.705Z,95.20
2022-09-04T18:19:59.411Z,96.40
2022-09-04T18:23:03.151Z,97.50
2022-09-04T18:25:57.880Z,98.10
2022-09-04T18:37:12.183Z,99.60
2022-09-04T18:37:23.202Z,99.90
2022-09-04T18:37:44.140Z,99.90
2022-09-04T18:41:54.817Z,99.90
2022-09-04T18:50:24.352Z,99.90
2022-09-04T18:50:29.201Z,99.90
2022-09-04T18:50:49.244Z,99.90
2022-09-04T18:52:19.598Z,99.90
2022-09-04T18:55:15.282Z,99.90
2022-09-04T18:58:50.683Z,99.90
2022-09-04T19:01:48.164Z,99.90
2022-09-04T19:04:47.959Z,99.90
2022-09-04T19:07:44.595Z,99.90
2022-09-04T19:13:20.263Z,99.90
2022-09-04T19:16:12.895Z,99.90
2022-09-04T19:19:09.753Z,99.90
2022-09-04T19:22:09.652Z,99.90
2022-09-04T19:25:05.817Z,99.90
2022-09-04T19:28:00.287Z,99.90
2022-09-04T19:30:55.557Z,99.90
2022-09-04T19:33:50.290Z,99.90
2022-09-04T19:36:45.809Z,99.90
2022-09-04T19:46:03.889Z,99.90
2022-09-04T19:46:15.504Z,99.90
2022-09-04T19:46:17.426Z,99.90
2022-09-04T19:48:34.283Z,99.90
2022-09-04T19:53:36.106Z,99.90
2022-09-04T19:54:34.684Z,99.90
2022-09-04T19:57:32.538Z,99.90
2022-09-04T20:00:43.190Z,99.90
2022-09-04T20:03:29.687Z,99.90
2022-09-04T20:06:23.209Z,99.90
2022-09-04T20:09:18.338Z,99.90
2022-09-04T20:12:18.226Z,99.90
2022-09-04T20:15:14.093Z,99.90
2022-09-04T20:18:11.877Z,99.90
2022-09-04T20:21:07.896Z,99.90
2022-09-04T20:24:04.621Z,99.90
2022-09-04T20:27:01.582Z,99.90
2022-09-04T20:29:56.178Z,99.90
2022-09-04T20:32:51.277Z,99.90
2022-09-04T20:35:46.318Z,99.90
2022-09-04T20:38:41.683Z,99.90
2022-09-04T20:41:37.401Z,99.90
2022-09-04T20:44:31.941Z,99.90
2022-09-04T20:52:54.576Z,99.90
2022-09-04T20:52:55.063Z,99.90
2022-09-04T20:53:28.347Z,99.90
2022-09-04T20:56:29.530Z,99.90
2022-09-04T21:03:06.759Z,99.90
2022-09-04T21:03:23.991Z,99.90
2022-09-04T21:06:06.752Z,99.90
2022-09-04T21:08:57.187Z,99.90
2022-09-04T21:14:45.862Z,99.90
2022-09-04T21:18:07.469Z,99.90
2022-09-04T21:21:31.217Z,99.90
2022-09-04T21:24:49.600Z,99.90
2022-09-04T21:28:01.067Z,99.90
2022-09-04T21:31:01.190Z,99.90
2022-09-04T21:33:59.289Z,99.90
2022-09-04T21:36:53.138Z,99.90
2022-09-04T21:40:51.268Z,99.90
2022-09-04T21:44:19.267Z,99.90
2022-09-04T21:50:53.051Z,99.90
2022-09-04T21:54:37.866Z,99.90
2022-09-04T22:02:26.235Z,99.90
2022-09-04T22:02:38.658Z,99.90
2022-09-04T22:04:13.290Z,99.90
2022-09-04T22:08:20.452Z,99.90
2022-09-04T22:13:29.611Z,99.90
2022-09-04T22:13:42.100Z,99.90
2022-09-04T22:16:29.186Z,99.90
2022-09-04T22:19:40.861Z,99.90
2022-09-04T22:23:20.300Z,99.90
2022-09-04T22:26:29.395Z,99.90
2022-09-04T22:29:44.160Z,99.90
2022-09-04T22:33:06.857Z,99.90
2022-09-04T22:36:39.057Z,99.90
2022-09-04T22:39:46.796Z,99.90
2022-09-04T22:42:52.461Z,99.90
2022-09-04T22:46:09.427Z,99.90
2022-09-04T22:49:28.279Z,99.90
2022-09-04T22:52:31.762Z,99.90
2022-09-04T23:01:49.222Z,99.90
2022-09-04T23:04:53.436Z,99.90
2022-09-04T23:13:49.257Z,99.90
2022-09-04T23:13:49.526Z,99.90
2022-09-04T23:14:22.418Z,99.90
2022-09-04T23:17:27.048Z,99.90
2022-09-04T23:26:19.747Z,99.90
2022-09-04T23:26:43.053Z,99.90
2022-09-04T23:27:07.401Z,99.90
2022-09-04T23:30:14.546Z,99.90
2022-09-04T23:33:39.998Z,99.90
2022-09-04T23:37:00.090Z,99.90
2022-09-04T23:40:32.193Z,99.90
2022-09-04T23:44:13.199Z,99.90
2022-09-04T23:47:47.108Z,99.90
2022-09-04T23:50:14.772Z,99.90
2022-09-04T23:53:12.912Z,99.90
2022-09-04T23:56:15.025Z,99.90
2022-09-04T23:59:36.594Z,99.90
